sensor_id;sensor_type;location;lat;lon;timestamp;P1;durP1;ratioP1;P2;durP2;ratioP2
64950;SDS011;51482;47.014;7.652;2024-03-23T00:55:57;3.47;;;3.10;;
64950;SDS011;51482;47.014;7.652;2024-03-23T00:58:22;3.97;;;3.37;;
64950;SDS011;51482;47.014;7.652;2024-03-23T01:00:47;3.87;;;3.57;;
64950;SDS011;51482;47.014;7.652;2024-03-23T01:03:13;5.43;;;3.27;;
64950;SDS011;51482;47.014;7.652;2024-03-23T01:05:39;4.73;;;3.50;;
64950;SDS011;51482;47.014;7.652;2024-03-23T01:08:04;3.63;;;3.20;;
64950;SDS011;51482;47.014;7.652;2024-03-23T01:10:30;5.83;;;3.03;;
64950;SDS011;51482;47.014;7.652;2024-03-23T01:12:56;5.70;;;3.10;;
64950;SDS011;51482;47.014;7.652;2024-03-23T01:15:21;5.77;;;3.13;;
64950;SDS011;51482;47.014;7.652;2024-03-23T01:17:47;3.67;;;3.37;;
64950;SDS011;51482;47.014;7.652;2024-03-23T01:20:12;3.30;;;3.00;;
64950;SDS011;51482;47.014;7.652;2024-03-23T01:22:38;3.73;;;3.43;;
64950;SDS011;51482;47.014;7.652;2024-03-23T01:25:03;3.17;;;2.80;;
64950;SDS011;51482;47.014;7.652;2024-03-23T01:27:29;4.37;;;2.77;;
64950;SDS011;51482;47.014;7.652;2024-03-23T01:29:54;3.63;;;3.10;;
64950;SDS011;51482;47.014;7.652;2024-03-23T01:32:20;3.57;;;3.27;;
64950;SDS011;51482;47.014;7.652;2024-03-23T01:34:45;3.50;;;3.20;;
64950;SDS011;51482;47.014;7.652;2024-03-23T01:37:11;3.20;;;2.90;;
64950;SDS011;51482;47.014;7.652;2024-03-23T01:39:36;3.47;;;3.17;;
64950;SDS011;51482;47.014;7.652;2024-03-23T01:42:02;3.00;;;2.63;;
64950;SDS011;51482;47.014;7.652;2024-03-23T01:44:28;3.60;;;2.57;;
64950;SDS011;51482;47.014;7.652;2024-03-23T01:46:54;3.10;;;2.80;;
64950;SDS011;51482;47.014;7.652;2024-03-23T01:49:20;4.07;;;2.90;;
64950;SDS011;51482;47.014;7.652;2024-03-23T01:51:45;3.60;;;2.83;;
64950;SDS011;51482;47.014;7.652;2024-03-23T01:54:11;2.73;;;2.47;;
64950;SDS011;51482;47.014;7.652;2024-03-23T01:56:37;3.77;;;3.07;;
64950;SDS011;51482;47.014;7.652;2024-03-23T01:59:06;4.40;;;3.00;;
64950;SDS011;51482;47.014;7.652;2024-03-23T02:01:32;3.10;;;2.50;;
64950;SDS011;51482;47.014;7.652;2024-03-23T02:04:00;3.23;;;2.80;;
64950;SDS011;51482;47.014;7.652;2024-03-23T02:06:27;4.47;;;2.83;;
64950;SDS011;51482;47.014;7.652;2024-03-23T02:08:53;7.57;;;3.93;;
64950;SDS011;51482;47.014;7.652;2024-03-23T02:11:19;3.90;;;2.83;;
64950;SDS011;51482;47.014;7.652;2024-03-23T02:13:45;3.60;;;3.07;;
64950;SDS011;51482;47.014;7.652;2024-03-23T02:16:11;3.87;;;2.73;;
64950;SDS011;51482;47.014;7.652;2024-03-23T02:18:38;3.87;;;3.53;;
64950;SDS011;51482;47.014;7.652;2024-03-23T02:21:04;2.80;;;2.60;;
64950;SDS011;51482;47.014;7.652;2024-03-23T02:23:29;5.20;;;2.87;;
64950;SDS011;51482;47.014;7.652;2024-03-23T02:25:55;2.67;;;2.47;;
64950;SDS011;51482;47.014;7.652;2024-03-23T02:28:20;3.00;;;2.80;;
64950;SDS011;51482;47.014;7.652;2024-03-23T02:30:47;4.33;;;3.10;;
64950;SDS011;51482;47.014;7.652;2024-03-23T02:33:14;3.20;;;2.90;;
64950;SDS011;51482;47.014;7.652;2024-03-23T02:35:39;3.63;;;3.33;;
64950;SDS011;51482;47.014;7.652;2024-03-23T02:38:05;3.67;;;2.83;;
64950;SDS011;51482;47.014;7.652;2024-03-23T02:40:30;2.83;;;2.60;;
64950;SDS011;51482;47.014;7.652;2024-03-23T02:42:56;2.80;;;2.60;;
64950;SDS011;51482;47.014;7.652;2024-03-23T02:45:21;2.97;;;2.77;;
64950;SDS011;51482;47.014;7.652;2024-03-23T02:47:47;3.03;;;2.83;;
64950;SDS011;51482;47.014;7.652;2024-03-23T02:50:16;5.53;;;2.90;;
64950;SDS011;51482;47.014;7.652;2024-03-23T02:52:45;4.10;;;3.40;;
64950;SDS011;51482;47.014;7.652;2024-03-23T02:55:11;2.87;;;2.50;;
64950;SDS011;51482;47.014;7.652;2024-03-23T02:57:36;5.57;;;3.00;;
64950;SDS011;51482;47.014;7.652;2024-03-23T03:00:02;2.90;;;2.60;;
64950;SDS011;51482;47.014;7.652;2024-03-23T03:02:28;2.80;;;2.60;;
64950;SDS011;51482;47.014;7.652;2024-03-23T03:04:54;2.90;;;2.70;;
64950;SDS011;51482;47.014;7.652;2024-03-23T03:07:19;3.13;;;2.83;;
64950;SDS011;51482;47.014;7.652;2024-03-23T03:09:45;3.40;;;3.13;;
64950;SDS011;51482;47.014;7.652;2024-03-23T03:12:10;3.60;;;3.10;;
64950;SDS011;51482;47.014;7.652;2024-03-23T03:14:36;3.03;;;2.83;;
64950;SDS011;51482;47.014;7.652;2024-03-23T03:17:02;3.77;;;2.37;;
64950;SDS011;51482;47.014;7.652;2024-03-23T03:19:28;2.93;;;2.70;;
64950;SDS011;51482;47.014;7.652;2024-03-23T03:21:53;4.23;;;3.93;;
64950;SDS011;51482;47.014;7.652;2024-03-23T03:24:19;3.17;;;2.87;;
64950;SDS011;51482;47.014;7.652;2024-03-23T03:26:44;3.47;;;3.13;;
64950;SDS011;51482;47.014;7.652;2024-03-23T03:29:10;6.07;;;2.83;;
64950;SDS011;51482;47.014;7.652;2024-03-23T03:31:36;3.33;;;3.03;;
64950;SDS011;51482;47.014;7.652;2024-03-23T03:34:02;4.37;;;2.80;;
64950;SDS011;51482;47.014;7.652;2024-03-23T03:36:28;3.43;;;2.70;;
64950;SDS011;51482;47.014;7.652;2024-03-23T03:38:53;5.53;;;3.37;;
64950;SDS011;51482;47.014;7.652;2024-03-23T03:41:19;3.10;;;2.57;;
64950;SDS011;51482;47.014;7.652;2024-03-23T03:43:45;5.87;;;3.87;;
64950;SDS011;51482;47.014;7.652;2024-03-23T03:46:10;3.10;;;2.80;;
64950;SDS011;51482;47.014;7.652;2024-03-23T03:48:36;3.23;;;2.93;;
64950;SDS011;51482;47.014;7.652;2024-03-23T03:51:02;4.37;;;2.73;;
64950;SDS011;51482;47.014;7.652;2024-03-23T03:53:28;3.23;;;3.03;;
64950;SDS011;51482;47.014;7.652;2024-03-23T03:55:54;4.17;;;3.20;;
64950;SDS011;51482;47.014;7.652;2024-03-23T03:58:19;3.50;;;3.20;;
64950;SDS011;51482;47.014;7.652;2024-03-23T04:00:45;3.53;;;3.27;;
64950;SDS011;51482;47.014;7.652;2024-03-23T04:03:10;3.27;;;2.53;;
64950;SDS011;51482;47.014;7.652;2024-03-23T04:05:36;4.00;;;3.57;;
64950;SDS011;51482;47.014;7.652;2024-03-23T04:08:02;3.63;;;3.07;;
64950;SDS011;51482;47.014;7.652;2024-03-23T04:10:29;3.20;;;2.90;;
64950;SDS011;51482;47.014;7.652;2024-03-23T04:12:55;2.97;;;2.67;;
64950;SDS011;51482;47.014;7.652;2024-03-23T04:15:20;3.83;;;2.97;;
64950;SDS011;51482;47.014;7.652;2024-03-23T04:17:46;3.60;;;3.30;;
64950;SDS011;51482;47.014;7.652;2024-03-23T04:20:12;5.07;;;4.67;;
64950;SDS011;51482;47.014;7.652;2024-03-23T04:22:41;5.43;;;3.60;;
64950;SDS011;51482;47.014;7.652;2024-03-23T04:25:10;4.93;;;2.90;;
64950;SDS011;51482;47.014;7.652;2024-03-23T04:27:39;3.53;;;2.67;;
64950;SDS011;51482;47.014;7.652;2024-03-23T04:30:05;3.43;;;3.10;;
64950;SDS011;51482;47.014;7.652;2024-03-23T04:32:36;2.73;;;2.53;;
64950;SDS011;51482;47.014;7.652;2024-03-23T04:35:02;3.17;;;2.60;;
64950;SDS011;51482;47.014;7.652;2024-03-23T04:37:31;3.17;;;2.40;;
64950;SDS011;51482;47.014;7.652;2024-03-23T04:39:57;2.73;;;2.40;;
64950;SDS011;51482;47.014;7.652;2024-03-23T04:42:23;3.77;;;3.27;;
64950;SDS011;51482;47.014;7.652;2024-03-23T04:44:49;3.20;;;2.90;;
64950;SDS011;51482;47.014;7.652;2024-03-23T04:47:15;3.73;;;2.10;;
64950;SDS011;51482;47.014;7.652;2024-03-23T04:49:41;2.60;;;2.40;;
64950;SDS011;51482;47.014;7.652;2024-03-23T04:52:07;3.40;;;2.00;;
64950;SDS011;51482;47.014;7.652;2024-03-23T04:54:32;4.13;;;2.67;;
64950;SDS011;51482;47.014;7.652;2024-03-23T04:56:58;3.07;;;2.30;;
64950;SDS011;51482;47.014;7.652;2024-03-23T04:59:24;3.27;;;2.30;;
64950;SDS011;51482;47.014;7.652;2024-03-23T05:01:50;4.60;;;2.63;;
64950;SDS011;51482;47.014;7.652;2024-03-23T05:04:15;2.80;;;2.10;;
64950;SDS011;51482;47.014;7.652;2024-03-23T05:06:41;4.70;;;2.87;;
64950;SDS011;51482;47.014;7.652;2024-03-23T05:09:06;2.57;;;2.37;;
64950;SDS011;51482;47.014;7.652;2024-03-23T05:11:33;4.13;;;3.00;;
64950;SDS011;51482;47.014;7.652;2024-03-23T05:13:59;2.73;;;2.53;;
64950;SDS011;51482;47.014;7.652;2024-03-23T05:16:25;4.77;;;2.87;;
64950;SDS011;51482;47.014;7.652;2024-03-23T05:18:51;2.90;;;2.70;;
64950;SDS011;51482;47.014;7.652;2024-03-23T05:21:17;3.30;;;2.83;;
64950;SDS011;51482;47.014;7.652;2024-03-23T05:23:42;3.43;;;3.10;;
64950;SDS011;51482;47.014;7.652;2024-03-23T05:26:08;7.40;;;4.10;;
64950;SDS011;51482;47.014;7.652;2024-03-23T05:28:35;4.23;;;3.83;;
64950;SDS011;51482;47.014;7.652;2024-03-23T05:31:00;5.63;;;3.60;;
64950;SDS011;51482;47.014;7.652;2024-03-23T05:33:26;6.97;;;3.87;;
64950;SDS011;51482;47.014;7.652;2024-03-23T05:35:58;6.10;;;4.00;;
64950;SDS011;51482;47.014;7.652;2024-03-23T05:38:25;6.03;;;4.27;;
64950;SDS011;51482;47.014;7.652;2024-03-23T05:40:58;4.80;;;4.33;;
64950;SDS011;51482;47.014;7.652;2024-03-23T05:43:24;4.33;;;3.87;;
64950;SDS011;51482;47.014;7.652;2024-03-23T05:45:57;4.43;;;4.03;;
64950;SDS011;51482;47.014;7.652;2024-03-23T05:48:23;5.07;;;4.60;;
64950;SDS011;51482;47.014;7.652;2024-03-23T05:50:50;5.50;;;3.90;;
64950;SDS011;51482;47.014;7.652;2024-03-23T05:53:16;6.00;;;4.13;;
64950;SDS011;51482;47.014;7.652;2024-03-23T05:55:42;5.80;;;4.50;;
64950;SDS011;51482;47.014;7.652;2024-03-23T05:58:08;5.70;;;4.50;;
64950;SDS011;51482;47.014;7.652;2024-03-23T06:00:34;6.30;;;4.73;;
64950;SDS011;51482;47.014;7.652;2024-03-23T06:02:59;4.10;;;3.70;;
64950;SDS011;51482;47.014;7.652;2024-03-23T06:05:25;3.93;;;3.63;;
64950;SDS011;51482;47.014;7.652;2024-03-23T06:07:51;7.40;;;4.43;;
64950;SDS011;51482;47.014;7.652;2024-03-23T06:10:16;4.80;;;4.30;;
64950;SDS011;51482;47.014;7.652;2024-03-23T06:12:42;5.87;;;3.90;;
64950;SDS011;51482;47.014;7.652;2024-03-23T06:15:07;4.67;;;4.17;;
64950;SDS011;51482;47.014;7.652;2024-03-23T06:17:38;5.73;;;4.13;;
64950;SDS011;51482;47.014;7.652;2024-03-23T06:20:04;4.40;;;4.00;;
64950;SDS011;51482;47.014;7.652;2024-03-23T06:22:33;4.50;;;4.10;;
64950;SDS011;51482;47.014;7.652;2024-03-23T06:24:58;4.37;;;3.93;;
64950;SDS011;51482;47.014;7.652;2024-03-23T06:27:25;4.60;;;4.10;;
64950;SDS011;51482;47.014;7.652;2024-03-23T06:29:51;5.00;;;3.93;;
64950;SDS011;51482;47.014;7.652;2024-03-23T06:32:17;4.00;;;3.60;;
64950;SDS011;51482;47.014;7.652;2024-03-23T06:34:43;4.40;;;3.73;;
64950;SDS011;51482;47.014;7.652;2024-03-23T06:37:09;3.87;;;3.27;;
64950;SDS011;51482;47.014;7.652;2024-03-23T06:39:35;4.93;;;3.47;;
64950;SDS011;51482;47.014;7.652;2024-03-23T06:42:02;4.87;;;3.60;;
64950;SDS011;51482;47.014;7.652;2024-03-23T06:44:28;3.80;;;3.40;;
64950;SDS011;51482;47.014;7.652;2024-03-23T06:46:54;3.83;;;3.53;;
64950;SDS011;51482;47.014;7.652;2024-03-23T06:49:19;4.83;;;3.53;;
64950;SDS011;51482;47.014;7.652;2024-03-23T06:51:45;6.10;;;4.00;;
64950;SDS011;51482;47.014;7.652;2024-03-23T06:54:11;3.37;;;3.07;;
64950;SDS011;51482;47.014;7.652;2024-03-23T06:56:37;3.63;;;3.23;;
64950;SDS011;51482;47.014;7.652;2024-03-23T06:59:02;4.03;;;2.90;;
64950;SDS011;51482;47.014;7.652;2024-03-23T07:01:28;4.60;;;2.77;;
64950;SDS011;51482;47.014;7.652;2024-03-23T07:03:54;3.63;;;3.33;;
64950;SDS011;51482;47.014;7.652;2024-03-23T07:06:19;3.17;;;2.90;;
64950;SDS011;51482;47.014;7.652;2024-03-23T07:08:45;3.87;;;3.30;;
64950;SDS011;51482;47.014;7.652;2024-03-23T07:11:10;3.67;;;2.80;;
64950;SDS011;51482;47.014;7.652;2024-03-23T07:13:36;2.73;;;2.53;;
64950;SDS011;51482;47.014;7.652;2024-03-23T07:16:01;2.87;;;2.43;;
64950;SDS011;51482;47.014;7.652;2024-03-23T07:18:27;2.67;;;2.27;;
64950;SDS011;51482;47.014;7.652;2024-03-23T07:20:54;2.67;;;2.47;;
64950;SDS011;51482;47.014;7.652;2024-03-23T07:23:21;2.73;;;2.10;;
64950;SDS011;51482;47.014;7.652;2024-03-23T07:26:03;2.20;;;2.10;;
64950;SDS011;51482;47.014;7.652;2024-03-23T07:28:30;2.33;;;2.17;;
64950;SDS011;51482;47.014;7.652;2024-03-23T07:31:09;2.40;;;2.20;;
64950;SDS011;51482;47.014;7.652;2024-03-23T07:33:36;4.30;;;2.20;;
64950;SDS011;51482;47.014;7.652;2024-03-23T07:36:03;2.40;;;2.00;;
64950;SDS011;51482;47.014;7.652;2024-03-23T07:38:29;4.10;;;2.10;;
64950;SDS011;51482;47.014;7.652;2024-03-23T07:41:37;2.70;;;2.30;;
64950;SDS011;51482;47.014;7.652;2024-03-23T07:43:44;2.80;;;2.60;;
64950;SDS011;51482;47.014;7.652;2024-03-23T07:46:10;2.77;;;2.07;;
64950;SDS011;51482;47.014;7.652;2024-03-23T07:48:37;2.50;;;2.30;;
64950;SDS011;51482;47.014;7.652;2024-03-23T07:51:04;1.87;;;1.77;;
64950;SDS011;51482;47.014;7.652;2024-03-23T07:53:37;4.43;;;2.57;;
64950;SDS011;51482;47.014;7.652;2024-03-23T07:56:08;3.07;;;2.13;;
64950;SDS011;51482;47.014;7.652;2024-03-23T07:58:35;2.17;;;2.07;;
64950;SDS011;51482;47.014;7.652;2024-03-23T08:01:05;1.63;;;1.53;;
64950;SDS011;51482;47.014;7.652;2024-03-23T08:03:32;1.60;;;1.53;;
64950;SDS011;51482;47.014;7.652;2024-03-23T08:06:06;1.60;;;1.50;;
64950;SDS011;51482;47.014;7.652;2024-03-23T08:08:38;1.43;;;1.30;;
64950;SDS011;51482;47.014;7.652;2024-03-23T08:11:05;1.40;;;1.40;;
64950;SDS011;51482;47.014;7.652;2024-03-23T08:13:31;1.03;;;1.03;;
64950;SDS011;51482;47.014;7.652;2024-03-23T08:15:57;1.10;;;1.10;;
64950;SDS011;51482;47.014;7.652;2024-03-23T08:18:24;0.87;;;0.87;;
64950;SDS011;51482;47.014;7.652;2024-03-23T08:21:02;1.23;;;1.23;;
64950;SDS011;51482;47.014;7.652;2024-03-23T08:23:29;0.83;;;0.83;;
64950;SDS011;51482;47.014;7.652;2024-03-23T08:25:59;1.00;;;1.00;;
64950;SDS011;51482;47.014;7.652;2024-03-23T08:28:25;1.00;;;1.00;;
64950;SDS011;51482;47.014;7.652;2024-03-23T08:30:55;1.13;;;1.13;;
64950;SDS011;51482;47.014;7.652;2024-03-23T08:33:21;1.10;;;1.10;;
64950;SDS011;51482;47.014;7.652;2024-03-23T08:35:56;1.27;;;1.27;;
64950;SDS011;51482;47.014;7.652;2024-03-23T08:38:23;1.00;;;1.00;;
64950;SDS011;51482;47.014;7.652;2024-03-23T08:43:28;0.77;;;0.77;;
64950;SDS011;51482;47.014;7.652;2024-03-23T08:46:06;0.63;;;0.63;;
64950;SDS011;51482;47.014;7.652;2024-03-23T08:48:51;0.80;;;0.80;;
64950;SDS011;51482;47.014;7.652;2024-03-23T08:51:18;0.77;;;0.77;;
64950;SDS011;51482;47.014;7.652;2024-03-23T08:53:43;1.20;;;1.20;;
64950;SDS011;51482;47.014;7.652;2024-03-23T08:56:10;0.87;;;0.87;;
64950;SDS011;51482;47.014;7.652;2024-03-23T08:58:36;0.97;;;0.97;;
64950;SDS011;51482;47.014;7.652;2024-03-23T09:01:07;1.30;;;0.70;;
64950;SDS011;51482;47.014;7.652;2024-03-23T09:03:38;0.97;;;0.97;;
64950;SDS011;51482;47.014;7.652;2024-03-23T09:06:06;1.23;;;1.23;;
64950;SDS011;51482;47.014;7.652;2024-03-23T09:08:33;1.30;;;1.30;;
64950;SDS011;51482;47.014;7.652;2024-03-23T09:11:03;1.20;;;1.20;;
64950;SDS011;51482;47.014;7.652;2024-03-23T09:13:31;1.30;;;1.30;;
64950;SDS011;51482;47.014;7.652;2024-03-23T09:16:00;0.73;;;0.73;;
64950;SDS011;51482;47.014;7.652;2024-03-23T09:18:26;1.73;;;1.10;;
64950;SDS011;51482;47.014;7.652;2024-03-23T09:20:52;1.63;;;1.53;;
64950;SDS011;51482;47.014;7.652;2024-03-23T09:23:19;0.97;;;0.97;;
64950;SDS011;51482;47.014;7.652;2024-03-23T09:25:48;1.70;;;1.60;;
64950;SDS011;51482;47.014;7.652;2024-03-23T09:28:13;1.10;;;1.10;;
64950;SDS011;51482;47.014;7.652;2024-03-23T09:30:39;3.37;;;2.10;;
64950;SDS011;51482;47.014;7.652;2024-03-23T09:33:07;1.30;;;1.27;;
64950;SDS011;51482;47.014;7.652;2024-03-23T09:35:40;1.63;;;1.53;;
64950;SDS011;51482;47.014;7.652;2024-03-23T09:38:07;1.50;;;1.40;;
64950;SDS011;51482;47.014;7.652;2024-03-23T09:40:34;1.67;;;1.57;;
64950;SDS011;51482;47.014;7.652;2024-03-23T09:43:07;2.47;;;1.53;;
64950;SDS011;51482;47.014;7.652;2024-03-23T09:45:35;2.00;;;1.47;;
64950;SDS011;51482;47.014;7.652;2024-03-23T09:48:06;1.93;;;1.77;;
64950;SDS011;51482;47.014;7.652;2024-03-23T09:50:33;2.17;;;1.37;;
64950;SDS011;51482;47.014;7.652;2024-03-23T09:52:59;4.60;;;1.90;;
64950;SDS011;51482;47.014;7.652;2024-03-23T09:55:25;2.70;;;1.43;;
64950;SDS011;51482;47.014;7.652;2024-03-23T09:57:51;2.37;;;1.80;;
64950;SDS011;51482;47.014;7.652;2024-03-23T10:00:16;1.50;;;1.40;;
64950;SDS011;51482;47.014;7.652;2024-03-23T10:02:42;3.07;;;2.03;;
64950;SDS011;51482;47.014;7.652;2024-03-23T10:05:20;3.77;;;1.80;;
64950;SDS011;51482;47.014;7.652;2024-03-23T10:07:48;2.30;;;2.00;;
64950;SDS011;51482;47.014;7.652;2024-03-23T10:10:17;2.70;;;1.70;;
64950;SDS011;51482;47.014;7.652;2024-03-23T10:12:46;2.57;;;2.37;;
64950;SDS011;51482;47.014;7.652;2024-03-23T10:15:19;3.50;;;1.87;;
64950;SDS011;51482;47.014;7.652;2024-03-23T10:17:46;2.40;;;1.87;;
64950;SDS011;51482;47.014;7.652;2024-03-23T10:20:12;3.20;;;1.50;;
64950;SDS011;51482;47.014;7.652;2024-03-23T10:22:37;2.50;;;2.23;;
64950;SDS011;51482;47.014;7.652;2024-03-23T10:25:10;2.27;;;2.07;;
64950;SDS011;51482;47.014;7.652;2024-03-23T10:27:38;1.83;;;1.73;;
64950;SDS011;51482;47.014;7.652;2024-03-23T10:30:08;3.67;;;1.43;;
64950;SDS011;51482;47.014;7.652;2024-03-23T10:32:34;3.27;;;1.67;;
64950;SDS011;51482;47.014;7.652;2024-03-23T10:37:45;2.47;;;2.27;;
64950;SDS011;51482;47.014;7.652;2024-03-23T10:40:17;2.67;;;1.70;;
64950;SDS011;51482;47.014;7.652;2024-03-23T10:42:44;2.23;;;2.00;;
64950;SDS011;51482;47.014;7.652;2024-03-23T10:45:10;2.10;;;1.30;;
64950;SDS011;51482;47.014;7.652;2024-03-23T10:47:36;4.73;;;1.90;;
64950;SDS011;51482;47.014;7.652;2024-03-23T10:50:05;2.13;;;1.30;;
64950;SDS011;51482;47.014;7.652;2024-03-23T10:52:33;2.70;;;2.03;;
64950;SDS011;51482;47.014;7.652;2024-03-23T10:55:00;5.80;;;1.60;;
64950;SDS011;51482;47.014;7.652;2024-03-23T10:57:50;3.60;;;1.90;;
64950;SDS011;51482;47.014;7.652;2024-03-23T11:00:19;3.30;;;1.80;;
64950;SDS011;51482;47.014;7.652;2024-03-23T11:02:47;1.87;;;1.77;;
64950;SDS011;51482;47.014;7.652;2024-03-23T11:07:51;4.63;;;2.10;;
64950;SDS011;51482;47.014;7.652;2024-03-23T11:10:29;3.57;;;1.60;;
64950;SDS011;51482;47.014;7.652;2024-03-23T11:13:21;2.87;;;2.00;;
64950;SDS011;51482;47.014;7.652;2024-03-23T11:15:48;6.20;;;2.33;;
64950;SDS011;51482;47.014;7.652;2024-03-23T11:18:20;3.80;;;1.90;;
64950;SDS011;51482;47.014;7.652;2024-03-23T11:20:46;3.73;;;2.17;;
64950;SDS011;51482;47.014;7.652;2024-03-23T11:23:32;2.50;;;1.80;;
64950;SDS011;51482;47.014;7.652;2024-03-23T11:25:57;2.15;;;1.67;;
64950;SDS011;51482;47.014;7.652;2024-03-23T11:28:23;3.13;;;2.03;;
64950;SDS011;51482;47.014;7.652;2024-03-23T11:30:48;3.03;;;2.13;;
64950;SDS011;51482;47.014;7.652;2024-03-23T11:33:14;5.03;;;2.10;;
64950;SDS011;51482;47.014;7.652;2024-03-23T11:35:40;4.47;;;2.07;;
64950;SDS011;51482;47.014;7.652;2024-03-23T11:38:10;2.63;;;2.00;;
64950;SDS011;51482;47.014;7.652;2024-03-23T11:40:40;9.63;;;4.10;;
64950;SDS011;51482;47.014;7.652;2024-03-23T11:43:12;5.00;;;1.95;;
64950;SDS011;51482;47.014;7.652;2024-03-23T11:45:42;3.50;;;2.13;;
64950;SDS011;51482;47.014;7.652;2024-03-23T11:48:15;6.70;;;2.10;;
64950;SDS011;51482;47.014;7.652;2024-03-23T11:50:43;4.93;;;2.63;;
64950;SDS011;51482;47.014;7.652;2024-03-23T11:55:52;3.30;;;2.03;;
64950;SDS011;51482;47.014;7.652;2024-03-23T11:58:20;4.68;;;2.13;;
64950;SDS011;51482;47.014;7.652;2024-03-23T12:01:00;4.30;;;1.92;;
64950;SDS011;51482;47.014;7.652;2024-03-23T12:03:30;6.53;;;2.65;;
64950;SDS011;51482;47.014;7.652;2024-03-23T12:06:01;4.22;;;2.30;;
64950;SDS011;51482;47.014;7.652;2024-03-23T12:08:29;2.63;;;1.70;;
64950;SDS011;51482;47.014;7.652;2024-03-23T12:13:31;3.60;;;1.77;;
64950;SDS011;51482;47.014;7.652;2024-03-23T12:16:08;3.97;;;2.55;;
64950;SDS011;51482;47.014;7.652;2024-03-23T12:18:35;2.38;;;1.90;;
64950;SDS011;51482;47.014;7.652;2024-03-23T12:21:01;3.22;;;1.85;;
64950;SDS011;51482;47.014;7.652;2024-03-23T12:23:26;3.83;;;2.03;;
64950;SDS011;51482;47.014;7.652;2024-03-23T12:25:52;3.40;;;1.92;;
64950;SDS011;51482;47.014;7.652;2024-03-23T12:28:17;3.90;;;2.08;;
64950;SDS011;51482;47.014;7.652;2024-03-23T12:30:43;2.80;;;1.77;;
64950;SDS011;51482;47.014;7.652;2024-03-23T12:33:09;2.97;;;1.77;;
64950;SDS011;51482;47.014;7.652;2024-03-23T12:35:34;2.67;;;1.80;;
64950;SDS011;51482;47.014;7.652;2024-03-23T12:38:00;2.97;;;1.80;;
64950;SDS011;51482;47.014;7.652;2024-03-23T12:40:25;3.47;;;1.70;;
64950;SDS011;51482;47.014;7.652;2024-03-23T12:42:52;2.35;;;2.00;;
64950;SDS011;51482;47.014;7.652;2024-03-23T12:45:18;3.95;;;1.90;;
64950;SDS011;51482;47.014;7.652;2024-03-23T12:47:44;3.78;;;2.10;;
64950;SDS011;51482;47.014;7.652;2024-03-23T12:50:09;3.47;;;1.80;;
64950;SDS011;51482;47.014;7.652;2024-03-23T12:52:35;3.33;;;2.00;;
64950;SDS011;51482;47.014;7.652;2024-03-23T12:55:01;3.75;;;1.70;;
64950;SDS011;51482;47.014;7.652;2024-03-23T12:57:30;3.35;;;1.70;;
64950;SDS011;51482;47.014;7.652;2024-03-23T12:59:56;2.10;;;1.73;;
64950;SDS011;51482;47.014;7.652;2024-03-23T13:02:22;1.92;;;1.67;;
64950;SDS011;51482;47.014;7.652;2024-03-23T13:04:52;3.38;;;2.15;;
64950;SDS011;51482;47.014;7.652;2024-03-23T13:07:18;5.43;;;2.08;;
64950;SDS011;51482;47.014;7.652;2024-03-23T13:09:45;3.47;;;2.00;;
64950;SDS011;51482;47.014;7.652;2024-03-23T13:12:11;2.22;;;1.75;;
64950;SDS011;51482;47.014;7.652;2024-03-23T13:14:39;4.07;;;2.25;;
64950;SDS011;51482;47.014;7.652;2024-03-23T13:17:05;3.20;;;1.90;;
64950;SDS011;51482;47.014;7.652;2024-03-23T13:19:32;2.90;;;1.80;;
64950;SDS011;51482;47.014;7.652;2024-03-23T13:21:58;4.18;;;1.90;;
64950;SDS011;51482;47.014;7.652;2024-03-23T13:24:25;2.90;;;1.63;;
64950;SDS011;51482;47.014;7.652;2024-03-23T13:26:51;3.13;;;1.90;;
64950;SDS011;51482;47.014;7.652;2024-03-23T13:29:17;3.33;;;1.92;;
64950;SDS011;51482;47.014;7.652;2024-03-23T13:31:44;3.33;;;2.17;;
64950;SDS011;51482;47.014;7.652;2024-03-23T13:34:09;2.05;;;1.60;;
64950;SDS011;51482;47.014;7.652;2024-03-23T13:36:35;3.20;;;2.03;;
64950;SDS011;51482;47.014;7.652;2024-03-23T13:39:01;3.55;;;1.50;;
64950;SDS011;51482;47.014;7.652;2024-03-23T13:41:35;4.82;;;2.10;;
64950;SDS011;51482;47.014;7.652;2024-03-23T13:44:09;3.22;;;1.45;;
64950;SDS011;51482;47.014;7.652;2024-03-23T13:46:35;5.05;;;2.70;;
64950;SDS011;51482;47.014;7.652;2024-03-23T13:49:02;3.65;;;1.60;;
64950;SDS011;51482;47.014;7.652;2024-03-23T13:51:28;14.23;;;3.90;;
64950;SDS011;51482;47.014;7.652;2024-03-23T13:53:54;4.88;;;1.65;;
64950;SDS011;51482;47.014;7.652;2024-03-23T13:56:21;5.55;;;2.08;;
64950;SDS011;51482;47.014;7.652;2024-03-23T13:58:50;3.42;;;1.95;;
64950;SDS011;51482;47.014;7.652;2024-03-23T14:01:16;2.83;;;2.13;;
64950;SDS011;51482;47.014;7.652;2024-03-23T14:03:42;5.32;;;2.65;;
64950;SDS011;51482;47.014;7.652;2024-03-23T14:06:08;5.13;;;1.85;;
64950;SDS011;51482;47.014;7.652;2024-03-23T14:08:35;4.18;;;2.00;;
64950;SDS011;51482;47.014;7.652;2024-03-23T14:11:04;2.80;;;1.48;;
64950;SDS011;51482;47.014;7.652;2024-03-23T14:13:30;1.80;;;1.30;;
64950;SDS011;51482;47.014;7.652;2024-03-23T14:15:56;3.75;;;2.20;;
64950;SDS011;51482;47.014;7.652;2024-03-23T14:18:22;1.50;;;1.20;;
64950;SDS011;51482;47.014;7.652;2024-03-23T14:20:48;4.75;;;1.73;;
64950;SDS011;51482;47.014;7.652;2024-03-23T14:23:15;2.97;;;1.45;;
64950;SDS011;51482;47.014;7.652;2024-03-23T14:25:40;2.85;;;1.50;;
64950;SDS011;51482;47.014;7.652;2024-03-23T14:28:06;2.25;;;1.40;;
64950;SDS011;51482;47.014;7.652;2024-03-23T14:30:38;3.55;;;1.75;;
64950;SDS011;51482;47.014;7.652;2024-03-23T14:33:04;4.75;;;1.70;;
64950;SDS011;51482;47.014;7.652;2024-03-23T14:35:29;4.85;;;1.50;;
64950;SDS011;51482;47.014;7.652;2024-03-23T14:37:56;4.53;;;1.30;;
64950;SDS011;51482;47.014;7.652;2024-03-23T14:40:21;3.58;;;1.30;;
64950;SDS011;51482;47.014;7.652;2024-03-23T14:42:47;3.80;;;2.00;;
64950;SDS011;51482;47.014;7.652;2024-03-23T14:45:12;2.08;;;1.42;;
64950;SDS011;51482;47.014;7.652;2024-03-23T14:47:40;2.95;;;1.92;;
64950;SDS011;51482;47.014;7.652;2024-03-23T14:50:07;2.67;;;1.27;;
64950;SDS011;51482;47.014;7.652;2024-03-23T14:52:33;3.90;;;1.73;;
64950;SDS011;51482;47.014;7.652;2024-03-23T14:55:00;7.20;;;2.20;;
64950;SDS011;51482;47.014;7.652;2024-03-23T14:57:26;4.38;;;2.97;;
64950;SDS011;51482;47.014;7.652;2024-03-23T14:59:54;2.95;;;1.70;;
64950;SDS011;51482;47.014;7.652;2024-03-23T15:02:19;3.83;;;1.95;;
64950;SDS011;51482;47.014;7.652;2024-03-23T15:04:45;4.60;;;2.67;;
64950;SDS011;51482;47.014;7.652;2024-03-23T15:07:10;3.00;;;1.80;;
64950;SDS011;51482;47.014;7.652;2024-03-23T15:09:36;3.30;;;1.90;;
64950;SDS011;51482;47.014;7.652;2024-03-23T15:12:01;3.43;;;2.13;;
64950;SDS011;51482;47.014;7.652;2024-03-23T15:14:27;2.05;;;1.70;;
64950;SDS011;51482;47.014;7.652;2024-03-23T15:16:53;1.60;;;1.33;;
64950;SDS011;51482;47.014;7.652;2024-03-23T15:19:19;3.10;;;1.90;;
64950;SDS011;51482;47.014;7.652;2024-03-23T15:21:44;2.30;;;1.77;;
64950;SDS011;51482;47.014;7.652;2024-03-23T15:24:10;2.47;;;1.52;;
64950;SDS011;51482;47.014;7.652;2024-03-23T15:26:38;2.93;;;1.60;;
64950;SDS011;51482;47.014;7.652;2024-03-23T15:29:04;2.43;;;1.73;;
64950;SDS011;51482;47.014;7.652;2024-03-23T15:31:37;2.50;;;2.10;;
64950;SDS011;51482;47.014;7.652;2024-03-23T15:34:03;2.73;;;1.53;;
64950;SDS011;51482;47.014;7.652;2024-03-23T15:36:29;3.83;;;2.03;;
64950;SDS011;51482;47.014;7.652;2024-03-23T15:38:55;2.93;;;1.80;;
64950;SDS011;51482;47.014;7.652;2024-03-23T15:41:21;3.53;;;1.80;;
64950;SDS011;51482;47.014;7.652;2024-03-23T15:43:48;2.27;;;2.00;;
64950;SDS011;51482;47.014;7.652;2024-03-23T15:46:14;3.23;;;1.70;;
64950;SDS011;51482;47.014;7.652;2024-03-23T15:48:40;2.23;;;1.70;;
64950;SDS011;51482;47.014;7.652;2024-03-23T15:51:11;1.97;;;1.23;;
64950;SDS011;51482;47.014;7.652;2024-03-23T15:53:36;1.50;;;1.40;;
64950;SDS011;51482;47.014;7.652;2024-03-23T15:56:02;4.17;;;1.33;;